Romulus, Alabama
Current Conditions -  °F | °C
As of 8:53 PM on Friday 19 Dec 2014 (Local Time) from KTCL Reporting Station
Light Rain Light Rain  
Wind Chill: 42°   Ceiling: 7500
Heat Index: 44°   Visibility: 7mi
Dew Point: 41°   Wind: 5mph
Humidity: 89%   Direction: 60°ENE
Pressure: 30.18"   Gusts: NA
Location:  33.2658°N, 87.7278°W
Report Text: KTCL 200253Z AUTO 06004KT 7SM -RA OVC075 07/05 A3018 RMK AO2 SLP220 P0005 60012 T00670050 58005
Loading
Personal Weather Stations






























Interactive Weather Map New forecast layout! Learn more

10-Day Weather Forecast

Advertisements
Track Severe Weather on mobile